»·PEaware :: SWA2146 KSLC-KLAS

SWA2146 :: KSLC-KLAS

FLIGHT INFORMATION

Flight Status: Arrived
Operator:
Southwest Airlines
More flights by this operator :: More flights under this callsign
Pilot: Tim Krajcar (2)
Aircraft: BOEING 737-300
(B733)
More flights by this aircraft type
Origin: KSLC Salt Lake City Intl
United States
Destination: KLAS McCarran Intl
United States
More flights between these airports :: More routes between these airports
Route: +WEVIC5 EHK KSINO GRNPA1
File this flight plan on PilotEdge
Remarks: PBN / A1B3B4B5D3D4 DOF / 170813 REG / N372SB EET / KZLA0033 OPR / SWA RMK / TCAS SIMBRIEF
Altitude:
(Current/Filed)
34,000ft
Speed:
(Current/Filed)
439kts
Departed: 12-Aug-17 08:40 PM
Arrived: 12-Aug-17 09:41 PM
Distance/Time
Traveled:
319nm/1:00
Distance/Time
To Go:
Arrived

Flight Plot

Page will automatically refresh every two minutes.


Map Options




Map Legend


Flown Route
Filed Route
Departure Airport
Arrival Airport
Navaid (VOR, NDB)
Fix

Horizontal Profiles

Position Reports

Time Latitude Longitude Heading Altitude Ground
Speed
12-Aug-17 19:46 40.788478 -111.977940 267 4234ft 0kts
12-Aug-17 19:47 40.788478 -111.977940 267 4234ft 0kts
12-Aug-17 19:49 40.788478 -111.977940 267 4234ft 0kts
12-Aug-17 19:49 40.788478 -111.977940 267 4234ft 0kts
12-Aug-17 19:50 40.788478 -111.977940 267 4234ft 0kts
12-Aug-17 19:51 40.788478 -111.977940 267 4234ft 0kts
12-Aug-17 19:52 40.788478 -111.977940 267 4234ft 0kts
12-Aug-17 19:53 40.788478 -111.977940 267 4234ft 0kts
12-Aug-17 19:54 40.788478 -111.977940 267 4234ft 0kts
12-Aug-17 19:55 40.788478 -111.977940 267 4234ft 0kts
12-Aug-17 19:56 40.788478 -111.977940 267 4234ft 0kts
12-Aug-17 19:57 40.788478 -111.977940 267 4234ft 0kts
12-Aug-17 19:58 40.788478 -111.977940 267 4234ft 0kts
12-Aug-17 19:59 40.788478 -111.977940 267 4234ft 0kts
12-Aug-17 20:00 40.788478 -111.977940 267 4234ft 0kts
12-Aug-17 20:01 40.788478 -111.977940 267 4234ft 0kts
12-Aug-17 20:02 40.788478 -111.977940 267 4234ft 0kts
12-Aug-17 20:03 40.788478 -111.977940 267 4234ft 0kts
12-Aug-17 20:04 40.788478 -111.977940 267 4234ft 0kts
12-Aug-17 20:05 40.788478 -111.977940 267 4234ft 0kts
12-Aug-17 20:06 40.788478 -111.977940 267 4234ft 0kts
12-Aug-17 20:07 40.788478 -111.977940 267 4234ft 0kts
12-Aug-17 20:08 40.788478 -111.977940 267 4234ft 0kts
12-Aug-17 20:09 40.788478 -111.977940 267 4234ft 0kts
12-Aug-17 20:16 40.788478 -111.977940 267 4234ft 0kts
12-Aug-17 20:17 40.788478 -111.977940 267 4234ft 0kts
12-Aug-17 20:18 40.788478 -111.977940 267 4234ft 0kts
12-Aug-17 20:19 40.788478 -111.977940 267 4234ft 0kts
12-Aug-17 20:20 40.788478 -111.977940 267 4234ft 0kts
12-Aug-17 20:21 40.788478 -111.977940 267 4234ft 0kts
12-Aug-17 20:22 40.788478 -111.977940 267 4234ft 0kts
12-Aug-17 20:23 40.788478 -111.977940 267 4234ft 0kts
12-Aug-17 20:24 40.788478 -111.977940 267 4234ft 0kts
12-Aug-17 20:25 40.788478 -111.977940 267 4234ft 0kts
12-Aug-17 20:26 40.788478 -111.977940 267 4234ft 0kts
12-Aug-17 20:27 40.788478 -111.977940 267 4234ft 0kts
12-Aug-17 20:28 40.788478 -111.977940 267 4234ft 0kts
12-Aug-17 20:29 40.788478 -111.977940 267 4234ft 0kts
12-Aug-17 20:30 40.788478 -111.977940 267 4234ft 0kts
12-Aug-17 20:31 40.788478 -111.977940 267 4234ft 0kts
12-Aug-17 20:32 40.788478 -111.977940 267 4234ft 0kts
12-Aug-17 20:33 40.788478 -111.977940 267 4234ft 0kts
12-Aug-17 20:34 40.788489 -111.977651 267 4234ft 0kts
12-Aug-17 20:35 40.788503 -111.977300 266 4234ft 0kts
12-Aug-17 20:36 40.788503 -111.977300 266 4234ft 0kts
12-Aug-17 20:37 40.788503 -111.977300 266 4234ft 0kts
12-Aug-17 20:38 40.789030 -111.977340 14 4234ft 16kts
12-Aug-17 20:39 40.797309 -111.977970 355 4234ft 32kts
12-Aug-17 20:40 40.806492 -111.978568 357 4234ft 29kts
12-Aug-17 20:41 40.807077 -111.978529 25 4234ft 0kts
12-Aug-17 20:42 40.807145 -111.978481 29 4234ft 3kts
12-Aug-17 20:43 40.791032 -111.974967 174 4262ft 162kts
12-Aug-17 20:44 40.738217 -111.964565 172 6299ft 219kts
12-Aug-17 20:45 40.674194 -111.957867 178 8606ft 255kts
12-Aug-17 20:46 40.599717 -111.955712 179 10644ft 297kts
12-Aug-17 20:47 40.510319 -111.953294 179 12766ft 334kts
12-Aug-17 20:48 40.415065 -111.948757 178 15230ft 351kts
12-Aug-17 20:49 40.316153 -111.941895 179 17610ft 363kts
12-Aug-17 20:50 40.215220 -111.947182 190 19776ft 370kts
12-Aug-17 20:51 40.111980 -111.963145 189 21808ft 380kts
12-Aug-17 20:52 40.005723 -111.978730 189 23659ft 389kts
12-Aug-17 20:53 39.897534 -111.994544 189 25305ft 399kts
12-Aug-17 20:54 39.786610 -112.010640 190 27030ft 403kts
12-Aug-17 20:55 39.676701 -112.026592 190 28921ft 397kts
12-Aug-17 20:56 39.566968 -112.042505 190 30049ft 407kts
12-Aug-17 20:57 39.450615 -112.059256 190 30775ft 426kts
12-Aug-17 20:58 39.335071 -112.075662 191 32479ft 417kts
12-Aug-17 20:59 39.220231 -112.091933 191 33671ft 415kts
12-Aug-17 21:00 39.109031 -112.120260 214 34123ft 402kts
12-Aug-17 21:01 39.012622 -112.192867 214 34102ft 401kts
12-Aug-17 21:02 38.915735 -112.263505 214 34103ft 402kts
12-Aug-17 21:03 38.819672 -112.333019 214 34104ft 402kts
12-Aug-17 21:04 38.722798 -112.403097 214 34103ft 401kts
12-Aug-17 21:05 38.625837 -112.473038 214 34103ft 401kts
12-Aug-17 21:06 38.528815 -112.542805 214 34131ft 401kts
12-Aug-17 21:07 38.431709 -112.612477 214 34130ft 401kts
12-Aug-17 21:08 38.335201 -112.681619 213 34135ft 401kts
12-Aug-17 21:09 38.238563 -112.750555 212 34128ft 399kts
12-Aug-17 21:10 38.141707 -112.819344 212 34130ft 399kts
12-Aug-17 21:11 38.049288 -112.884782 212 34130ft 399kts
12-Aug-17 21:12 37.952322 -112.953234 212 34175ft 398kts
12-Aug-17 21:13 37.856224 -113.020724 212 34179ft 399kts
12-Aug-17 21:14 37.760428 -113.091031 217 34182ft 397kts
12-Aug-17 21:15 37.669481 -113.168836 217 34184ft 397kts
12-Aug-17 21:16 37.578168 -113.246616 217 34184ft 397kts
12-Aug-17 21:17 37.486647 -113.324333 217 34184ft 397kts
12-Aug-17 21:18 37.395288 -113.401679 217 34184ft 397kts
12-Aug-17 21:19 37.304458 -113.478342 217 32769ft 394kts
12-Aug-17 21:20 37.214330 -113.554190 216 30112ft 387kts
12-Aug-17 21:22 37.126294 -113.628065 216 27627ft 380kts
12-Aug-17 21:23 37.037760 -113.702371 215 24798ft 391kts
12-Aug-17 21:24 36.949239 -113.776272 215 24034ft 384kts
12-Aug-17 21:25 36.860521 -113.849949 215 24045ft 384kts
12-Aug-17 21:26 36.771765 -113.923492 215 24049ft 385kts
12-Aug-17 21:27 36.682305 -113.997499 215 23268ft 392kts
12-Aug-17 21:28 36.592889 -114.071246 215 20771ft 382kts
12-Aug-17 21:29 36.534728 -114.174294 241 18264ft 357kts
12-Aug-17 21:30 36.487725 -114.277817 241 15765ft 335kts
12-Aug-17 21:31 36.443132 -114.375559 241 13271ft 319kts
12-Aug-17 21:32 36.400515 -114.466541 229 12021ft 299kts
12-Aug-17 21:33 36.322613 -114.499468 193 11965ft 302kts
12-Aug-17 21:34 36.239987 -114.520771 193 11499ft 300kts
12-Aug-17 21:35 36.160257 -114.540892 193 9898ft 287kts
12-Aug-17 21:36 36.091821 -114.578078 246 8289ft 271kts
12-Aug-17 21:37 36.067204 -114.664612 261 6534ft 271kts
12-Aug-17 21:38 36.066187 -114.757977 271 5022ft 265kts
12-Aug-17 21:39 36.067951 -114.839394 271 4975ft 225kts
12-Aug-17 21:40 36.072313 -114.916179 276 4968ft 225kts
12-Aug-17 21:41 36.073862 -114.985972 269 4417ft 178kts
12-Aug-17 21:42 36.073684 -115.041827 271 3510ft 157kts
12-Aug-17 21:43 36.073926 -115.095285 269 2669ft 155kts
12-Aug-17 21:44 36.073662 -115.142976 282 2148ft 45kts
12-Aug-17 21:45 36.076311 -115.146559 3 2148ft 13kts
12-Aug-17 21:46 36.080140 -115.148823 335 2148ft 17kts
12-Aug-17 21:47 36.082424 -115.150563 318 2148ft 0kts

Navigation Log

Ident Type
1. KSLC Airport
2. HOPTO Fix
3. MYRUP Fix
4. WEVIC Fix
5. ZOOBE Fix
6. GITLN Fix
7. LODUY Fix
8. URNUW Fix
9. EHK Navaid
10. KLAS Airport